Terminal Aerodrome Forecast
Issued by NWS

Home | Current Version | Previous Version | Text Only | Print | Product List | Glossary On
Versions: 1 2 3 4 5 6 7 8 9 10 11 12 13 14 15 16 17 18 19 20 21 22 23 24 25 26 27 28 29 30 31 32 33 34 35 36 37 38 39 40
000
FTAK31 PAFA 011747
TAFAQT
TAF
PAQT 011747Z 0118/0218 24010KT P6SM BKN020 OVC045
      TEMPO 0118/0120 4SM -RA BR BKN010 OVC020
     FM012000 25012KT 4SM -RA BR BKN010 OVC020
     FM020300 30011KT P6SM SCT010 OVC020
     FM020800 30010KT 2SM BR OVC010=

USA.gov is the U.S. government's official web portal to all federal, state and local government web resources and services.